Time;durP1;ratioP1;P1;durP2;ratioP2;P2;SDS_P1;SDS_P2;PMS_P1;PMS_P2;Temp;Humidity;BMP_temperature;BMP_pressure;BME280_temperature;BME280_humidity;BME280_pressure;Samples;Min_cycle;Max_cycle;Signal;HPM_P1;HPM_P2
2022/03/05 00:01:24;;;;;;;13.57;8.57;;;;;;;;;;4901948;29;20403;-69
2022/03/05 00:03:57;;;;;;;13.77;9.30;;;;;;;;;;4889923;29;20071;-69
2022/03/05 00:06:28;;;;;;;14.93;9.00;;;;;;;;;;4899810;29;20530;-69
2022/03/05 00:08:59;;;;;;;13.13;9.05;;;;;;;;;;4888921;29;20151;-69
2022/03/05 00:11:30;;;;;;;13.90;9.10;;;;;;;;;;4888765;29;20051;-69
2022/03/05 00:14:02;;;;;;;14.65;9.20;;;;;;;;;;4887210;29;20059;-69
2022/03/05 00:16:33;;;;;;;16.20;9.38;;;;;;;;;;4873728;29;20048;-69
2022/03/05 00:19:01;;;;;;;17.65;9.63;;;;;;;;;;4892385;29;20454;-69
2022/03/05 00:21:35;;;;;;;15.93;8.85;;;;;;;;;;4921224;29;20048;-69
2022/03/05 00:24:06;;;;;;;12.98;8.48;;;;;;;;;;4902549;29;20122;-69
2022/03/05 00:26:34;;;;;;;11.85;8.10;;;;;;;;;;4904715;29;20056;-69
2022/03/05 00:29:07;;;;;;;15.35;9.50;;;;;;;;;;4901439;29;20055;-69
2022/03/05 00:31:38;;;;;;;17.05;9.65;;;;;;;;;;4901553;29;20066;-69
2022/03/05 00:34:07;;;;;;;15.95;9.68;;;;;;;;;;4895321;29;20048;-69
2022/03/05 00:36:39;;;;;;;14.55;9.77;;;;;;;;;;4891417;29;20070;-69
2022/03/05 00:39:14;;;;;;;12.32;8.10;;;;;;;;;;4908410;29;20447;-69
2022/03/05 00:41:45;;;;;;;18.02;9.02;;;;;;;;;;4907571;29;20044;-68
2022/03/05 00:44:17;;;;;;;15.18;9.30;;;;;;;;;;4890480;29;20143;-68
2022/03/05 00:46:47;;;;;;;16.35;9.80;;;;;;;;;;4891586;29;20055;-69
2022/03/05 00:49:18;;;;;;;17.27;9.55;;;;;;;;;;4920076;29;20054;-69
2022/03/05 00:51:48;;;;;;;14.80;9.45;;;;;;;;;;4892353;29;20220;-69
2022/03/05 00:54:21;;;;;;;16.60;9.70;;;;;;;;;;4901792;29;20060;-69
2022/03/05 00:56:52;;;;;;;17.27;9.52;;;;;;;;;;4901696;29;20135;-69
2022/03/05 00:59:24;;;;;;;16.98;9.32;;;;;;;;;;4903543;29;20058;-69
2022/03/05 01:01:54;;;;;;;15.50;9.40;;;;;;;;;;4914228;29;20518;-69
2022/03/05 01:04:25;;;;;;;16.88;10.77;;;;;;;;;;4903647;29;20059;-68
2022/03/05 01:06:53;;;;;;;16.75;9.57;;;;;;;;;;4892277;29;20047;-68
2022/03/05 01:09:23;;;;;;;14.93;9.57;;;;;;;;;;4904578;29;20138;-69
2022/03/05 01:11:54;;;;;;;15.38;9.50;;;;;;;;;;4918167;29;20407;-69
2022/03/05 01:14:26;;;;;;;15.63;9.40;;;;;;;;;;4919303;29;20048;-69
2022/03/05 01:16:57;;;;;;;17.13;10.80;;;;;;;;;;4882807;29;20127;-68
2022/03/05 01:19:27;;;;;;;15.75;9.52;;;;;;;;;;4894000;29;20063;-68
2022/03/05 01:21:58;;;;;;;14.63;9.45;;;;;;;;;;4904572;29;20055;-68
2022/03/05 01:24:28;;;;;;;14.82;9.23;;;;;;;;;;4872635;29;20051;-69
2022/03/05 01:26:59;;;;;;;14.75;9.68;;;;;;;;;;4908290;29;20138;-68
2022/03/05 01:29:33;;;;;;;15.88;10.02;;;;;;;;;;4874441;29;20083;-69
2022/03/05 01:32:04;;;;;;;23.10;9.77;;;;;;;;;;4899192;29;20179;-68
2022/03/05 01:34:35;;;;;;;16.23;9.65;;;;;;;;;;4904299;29;20056;-69
2022/03/05 01:37:06;;;;;;;16.65;9.85;;;;;;;;;;4885086;29;20143;-68
2022/03/05 01:39:36;;;;;;;17.13;10.20;;;;;;;;;;4888303;29;20665;-69
2022/03/05 01:42:07;;;;;;;15.68;10.52;;;;;;;;;;4890950;29;20048;-69
2022/03/05 01:44:37;;;;;;;19.20;10.55;;;;;;;;;;4889407;29;20484;-68
2022/03/05 01:47:16;;;;;;;13.90;9.50;;;;;;;;;;4891692;29;20064;-68
2022/03/05 01:49:49;;;;;;;19.65;10.07;;;;;;;;;;4906324;29;20135;-69
2022/03/05 01:52:20;;;;;;;20.52;10.32;;;;;;;;;;4883461;29;20184;-69
2022/03/05 01:54:50;;;;;;;16.75;9.27;;;;;;;;;;4887580;29;20472;-69
2022/03/05 01:57:21;;;;;;;16.30;10.13;;;;;;;;;;4902690;29;20071;-69
2022/03/05 01:59:52;;;;;;;16.90;9.57;;;;;;;;;;4890087;29;20055;-69
2022/03/05 02:02:24;;;;;;;18.17;10.98;;;;;;;;;;4905092;29;20070;-69
2022/03/05 02:04:55;;;;;;;15.63;9.93;;;;;;;;;;4920400;29;20048;-69
2022/03/05 02:07:26;;;;;;;16.58;9.57;;;;;;;;;;4886608;29;20059;-69
2022/03/05 02:09:56;;;;;;;16.27;9.82;;;;;;;;;;4884820;29;20142;-69
2022/03/05 02:12:29;;;;;;;17.02;10.48;;;;;;;;;;4903736;29;20371;-69
2022/03/05 02:15:00;;;;;;;18.50;10.23;;;;;;;;;;4903970;29;20066;-69
2022/03/05 02:17:34;;;;;;;16.90;9.93;;;;;;;;;;4901927;29;20158;-69
2022/03/05 02:20:07;;;;;;;17.95;9.93;;;;;;;;;;4891423;29;20060;-69
2022/03/05 02:22:40;;;;;;;15.05;9.60;;;;;;;;;;4920749;29;20051;-69
2022/03/05 02:25:10;;;;;;;15.75;9.88;;;;;;;;;;4915985;29;20056;-70
2022/03/05 02:27:40;;;;;;;20.27;10.38;;;;;;;;;;4916130;29;20465;-69
2022/03/05 02:30:10;;;;;;;16.13;10.27;;;;;;;;;;4886712;29;20063;-69
2022/03/05 02:32:41;;;;;;;14.90;9.90;;;;;;;;;;4889146;29;20060;-69
2022/03/05 02:35:20;;;;;;;16.65;9.32;;;;;;;;;;4899415;29;20055;-69
2022/03/05 02:37:51;;;;;;;16.20;9.35;;;;;;;;;;4906898;29;20077;-69
2022/03/05 02:40:22;;;;;;;15.05;9.57;;;;;;;;;;4914759;29;20048;-69
2022/03/05 02:42:52;;;;;;;16.85;9.75;;;;;;;;;;4916256;29;20423;-69
2022/03/05 02:45:23;;;;;;;15.45;9.38;;;;;;;;;;4901628;29;20062;-69
2022/03/05 02:47:51;;;;;;;19.42;11.18;;;;;;;;;;4902023;29;20054;-70
2022/03/05 02:50:21;;;;;;;16.80;10.75;;;;;;;;;;4900806;29;21718;-69
2022/03/05 02:53:00;;;;;;;16.13;9.68;;;;;;;;;;4902270;29;20066;-69
2022/03/05 02:55:30;;;;;;;19.67;11.18;;;;;;;;;;4890450;29;20131;-69
2022/03/05 02:57:58;;;;;;;14.50;9.23;;;;;;;;;;4918090;29;20093;-70
2022/03/05 03:00:28;;;;;;;14.10;9.10;;;;;;;;;;4891819;29;20062;-69
2022/03/05 03:02:59;;;;;;;18.83;9.95;;;;;;;;;;4902639;29;20066;-69
2022/03/05 03:05:30;;;;;;;15.40;9.00;;;;;;;;;;4884651;29;20090;-69
2022/03/05 03:08:04;;;;;;;20.02;9.88;;;;;;;;;;4892220;29;20052;-69
2022/03/05 03:10:34;;;;;;;18.80;10.45;;;;;;;;;;4897596;29;20056;-69
2022/03/05 03:13:04;;;;;;;15.45;9.45;;;;;;;;;;4883924;29;20100;-69
2022/03/05 03:15:34;;;;;;;19.40;9.98;;;;;;;;;;4915818;29;20615;-69
2022/03/05 03:18:05;;;;;;;18.77;9.57;;;;;;;;;;4889637;29;20060;-69
2022/03/05 03:20:33;;;;;;;17.33;9.18;;;;;;;;;;4911693;29;20165;-69
2022/03/05 03:23:05;;;;;;;16.10;9.27;;;;;;;;;;4893453;29;20044;-69
2022/03/05 03:25:34;;;;;;;14.25;8.38;;;;;;;;;;4886374;29;20055;-69
2022/03/05 03:28:09;;;;;;;18.92;9.82;;;;;;;;;;4890014;29;20230;-69
2022/03/05 03:30:37;;;;;;;17.38;8.55;;;;;;;;;;4914941;29;20056;-69
2022/03/05 03:33:09;;;;;;;16.75;8.57;;;;;;;;;;4887240;29;20053;-69
2022/03/05 03:35:40;;;;;;;13.35;8.35;;;;;;;;;;4891758;29;20052;-69
2022/03/05 03:38:12;;;;;;;16.05;8.38;;;;;;;;;;4894701;29;20402;-69
2022/03/05 03:40:42;;;;;;;13.52;7.93;;;;;;;;;;4885687;29;20062;-69
2022/03/05 03:43:20;;;;;;;17.63;8.38;;;;;;;;;;4881932;29;20052;-69
2022/03/05 03:45:50;;;;;;;14.38;8.35;;;;;;;;;;4887898;29;20063;-69
2022/03/05 03:48:21;;;;;;;19.48;8.32;;;;;;;;;;4896908;29;20071;-70
2022/03/05 03:50:52;;;;;;;13.82;8.25;;;;;;;;;;4889378;29;20056;-70
2022/03/05 03:53:20;;;;;;;14.52;8.45;;;;;;;;;;4902477;29;20048;-70
2022/03/05 03:55:51;;;;;;;14.63;8.73;;;;;;;;;;4917014;29;20068;-69
2022/03/05 03:58:26;;;;;;;15.25;8.07;;;;;;;;;;4902602;29;20135;-69
2022/03/05 04:00:56;;;;;;;15.15;8.32;;;;;;;;;;4890443;29;20056;-69
2022/03/05 04:03:27;;;;;;;16.30;8.07;;;;;;;;;;4903208;29;20044;-70
2022/03/05 04:05:58;;;;;;;19.27;8.55;;;;;;;;;;4887307;29;20063;-69
2022/03/05 04:08:42;;;;;;;13.20;8.43;;;;;;;;;;4898099;29;20044;-69
2022/03/05 04:11:13;;;;;;;;;;;;;;;;;;4894373;29;20047;-69
2022/03/05 04:13:52;;;;;;;14.95;7.70;;;;;;;;;;4913537;29;20002;-69
2022/03/05 04:16:22;;;;;;;20.35;8.80;;;;;;;;;;4919451;29;20058;-69
2022/03/05 04:18:53;;;;;;;16.33;8.45;;;;;;;;;;4886998;29;20120;-69
2022/03/05 04:21:23;;;;;;;15.73;8.27;;;;;;;;;;4876482;29;20055;-69
2022/03/05 04:23:55;;;;;;;17.40;8.80;;;;;;;;;;4906130;29;20131;-69
2022/03/05 04:26:26;;;;;;;15.57;8.82;;;;;;;;;;4904969;29;20056;-69
2022/03/05 04:29:04;;;;;;;15.30;8.52;;;;;;;;;;4874476;29;20059;-69
2022/03/05 04:31:32;;;;;;;19.50;10.27;;;;;;;;;;4902240;29;20055;-70
2022/03/05 04:34:03;;;;;;;13.77;8.32;;;;;;;;;;4896493;29;20124;-69
2022/03/05 04:36:33;;;;;;;16.55;8.95;;;;;;;;;;4889937;29;20471;-69
2022/03/05 04:39:02;;;;;;;14.40;9.13;;;;;;;;;;4916020;29;20063;-69
2022/03/05 04:41:31;;;;;;;16.35;8.98;;;;;;;;;;4887217;29;20048;-69
2022/03/05 04:44:01;;;;;;;18.88;9.88;;;;;;;;;;4896642;29;21784;-69
2022/03/05 04:46:35;;;;;;;18.65;8.80;;;;;;;;;;4885473;29;20130;-69
2022/03/05 04:49:12;;;;;;;13.98;9.13;;;;;;;;;;4916124;29;20063;-69
2022/03/05 04:51:43;;;;;;;16.70;9.82;;;;;;;;;;4901003;29;20048;-69
2022/03/05 04:54:14;;;;;;;14.82;8.90;;;;;;;;;;4898847;29;20051;-70
2022/03/05 04:56:45;;;;;;;17.60;9.48;;;;;;;;;;4904093;29;20075;-69
2022/03/05 04:59:15;;;;;;;21.50;10.00;;;;;;;;;;4902094;29;20529;-69
2022/03/05 05:01:46;;;;;;;19.77;9.98;;;;;;;;;;4919121;29;20372;-69
2022/03/05 05:04:22;;;;;;;18.85;10.13;;;;;;;;;;4888391;29;20130;-69
2022/03/05 05:06:53;;;;;;;19.35;10.88;;;;;;;;;;4904632;29;20160;-69
2022/03/05 05:09:25;;;;;;;20.88;11.65;;;;;;;;;;4887087;29;20203;-70
2022/03/05 05:11:55;;;;;;;18.67;11.55;;;;;;;;;;4890511;29;20048;-69
2022/03/05 05:14:26;;;;;;;22.50;11.20;;;;;;;;;;4919732;29;20131;-69
2022/03/05 05:16:56;;;;;;;17.90;10.73;;;;;;;;;;4905806;29;20528;-69
2022/03/05 05:19:32;;;;;;;20.35;11.65;;;;;;;;;;4902814;29;20384;-69
2022/03/05 05:22:04;;;;;;;18.73;11.43;;;;;;;;;;4915865;29;20479;-69
2022/03/05 05:24:36;;;;;;;20.23;10.98;;;;;;;;;;4888391;29;20131;-69
2022/03/05 05:27:07;;;;;;;20.00;11.30;;;;;;;;;;4916345;29;20059;-69
2022/03/05 05:29:38;;;;;;;23.75;12.57;;;;;;;;;;4901536;29;20135;-69
2022/03/05 05:32:10;;;;;;;20.65;11.35;;;;;;;;;;4888101;29;20066;-69
2022/03/05 05:34:38;;;;;;;21.60;11.18;;;;;;;;;;4896121;29;20146;-69
2022/03/05 05:37:17;;;;;;;22.83;12.60;;;;;;;;;;4898911;29;20060;-69
2022/03/05 05:39:49;;;;;;;19.65;11.05;;;;;;;;;;4885747;29;20206;-69
2022/03/05 05:42:17;;;;;;;22.25;11.27;;;;;;;;;;4875753;29;20059;-69
2022/03/05 05:44:48;;;;;;;21.02;12.90;;;;;;;;;;4891766;29;20047;-69
2022/03/05 05:47:18;;;;;;;21.38;12.18;;;;;;;;;;4879525;29;20055;-69
2022/03/05 05:49:49;;;;;;;15.82;10.25;;;;;;;;;;4918261;29;20151;-69
2022/03/05 05:52:20;;;;;;;18.48;10.65;;;;;;;;;;4898874;29;20047;-69
2022/03/05 05:54:53;;;;;;;19.17;10.65;;;;;;;;;;4902628;29;20522;-69
2022/03/05 05:57:24;;;;;;;18.15;10.95;;;;;;;;;;4871965;29;20052;-69
2022/03/05 05:59:54;;;;;;;16.90;10.13;;;;;;;;;;4898691;29;20055;-69
2022/03/05 06:02:25;;;;;;;18.17;9.57;;;;;;;;;;4890832;29;20058;-69
2022/03/05 06:04:53;;;;;;;18.35;10.43;;;;;;;;;;4915957;29;20047;-69
2022/03/05 06:07:21;;;;;;;17.98;9.93;;;;;;;;;;4887034;29;20059;-69
2022/03/05 06:09:59;;;;;;;16.40;9.85;;;;;;;;;;4902610;29;20051;-69
2022/03/05 06:12:31;;;;;;;19.17;10.32;;;;;;;;;;4888532;29;20081;-69
2022/03/05 06:15:03;;;;;;;16.42;9.45;;;;;;;;;;4862405;29;20136;-69
2022/03/05 06:17:32;;;;;;;18.23;10.13;;;;;;;;;;4886795;29;20063;-69
2022/03/05 06:20:02;;;;;;;17.55;9.77;;;;;;;;;;4899701;29;20163;-69
2022/03/05 06:22:32;;;;;;;17.55;10.10;;;;;;;;;;4913294;29;20465;-69
2022/03/05 06:25:00;;;;;;;16.27;10.18;;;;;;;;;;4912538;29;20044;-69
2022/03/05 06:27:40;;;;;;;17.73;8.98;;;;;;;;;;4886490;29;20101;-69
2022/03/05 06:30:09;;;;;;;16.48;10.13;;;;;;;;;;4901937;29;20056;-69
2022/03/05 06:32:39;;;;;;;17.48;9.95;;;;;;;;;;4884952;29;20055;-69
2022/03/05 06:35:10;;;;;;;15.90;9.35;;;;;;;;;;4899547;29;20063;-69
2022/03/05 06:37:41;;;;;;;16.38;9.90;;;;;;;;;;4888908;29;20138;-69
2022/03/05 06:40:13;;;;;;;18.17;10.48;;;;;;;;;;4900215;29;21085;-69
2022/03/05 06:42:45;;;;;;;15.82;9.25;;;;;;;;;;4903464;29;20400;-69
2022/03/05 06:45:17;;;;;;;16.52;9.85;;;;;;;;;;4918403;29;20047;-69
2022/03/05 06:47:45;;;;;;;15.45;8.93;;;;;;;;;;4903752;29;20055;-69
2022/03/05 06:50:16;;;;;;;18.20;8.95;;;;;;;;;;4900955;29;20070;-69
2022/03/05 06:52:44;;;;;;;17.10;9.13;;;;;;;;;;4889209;29;20698;-69
2022/03/05 06:55:14;;;;;;;18.00;8.75;;;;;;;;;;4868116;29;20066;-69
2022/03/05 06:57:46;;;;;;;15.25;8.65;;;;;;;;;;4915996;29;20067;-69
2022/03/05 07:00:15;;;;;;;18.40;8.60;;;;;;;;;;4885841;29;20470;-69
2022/03/05 07:02:54;;;;;;;16.23;9.23;;;;;;;;;;4900670;29;20530;-69
2022/03/05 07:05:24;;;;;;;15.07;8.68;;;;;;;;;;4898478;29;20699;-69
2022/03/05 07:07:55;;;;;;;15.00;8.05;;;;;;;;;;4872828;29;20051;-70
2022/03/05 07:10:25;;;;;;;17.38;8.82;;;;;;;;;;4885134;29;20159;-69
2022/03/05 07:12:54;;;;;;;19.10;8.48;;;;;;;;;;4892826;29;20475;-69
2022/03/05 07:15:26;;;;;;;16.05;8.50;;;;;;;;;;4889434;29;20055;-69
2022/03/05 07:17:59;;;;;;;13.05;7.85;;;;;;;;;;4891205;29;20110;-69
2022/03/05 07:20:31;;;;;;;14.68;7.90;;;;;;;;;;4921450;29;20051;-69
2022/03/05 07:23:04;;;;;;;13.25;8.25;;;;;;;;;;4890541;29;20577;-69
2022/03/05 07:25:39;;;;;;;13.35;7.80;;;;;;;;;;4904493;29;20055;-69
2022/03/05 07:28:11;;;;;;;16.75;7.85;;;;;;;;;;4906519;29;20087;-69
2022/03/05 07:30:42;;;;;;;14.67;8.27;;;;;;;;;;4900641;29;20182;-69
2022/03/05 07:33:22;;;;;;;12.20;7.47;;;;;;;;;;4904744;29;20078;-69
2022/03/05 07:35:53;;;;;;;14.43;8.10;;;;;;;;;;4903150;29;20383;-69
2022/03/05 07:38:23;;;;;;;16.75;8.10;;;;;;;;;;4903473;29;20520;-69
2022/03/05 07:40:52;;;;;;;16.50;8.73;;;;;;;;;;4908541;29;20051;-70
2022/03/05 07:43:23;;;;;;;12.95;7.70;;;;;;;;;;4904473;29;20415;-70
2022/03/05 07:45:54;;;;;;;17.40;8.40;;;;;;;;;;4901522;29;20139;-70
2022/03/05 07:48:28;;;;;;;18.83;7.88;;;;;;;;;;4894088;29;20517;-70
2022/03/05 07:50:59;;;;;;;13.75;8.30;;;;;;;;;;4893736;29;20419;-70
2022/03/05 07:53:28;;;;;;;17.55;7.82;;;;;;;;;;4902166;29;20048;-70
2022/03/05 07:55:58;;;;;;;16.35;7.63;;;;;;;;;;4920233;29;20151;-70
2022/03/05 07:58:31;;;;;;;13.32;7.22;;;;;;;;;;4919769;29;20096;-69
2022/03/05 08:00:59;;;;;;;12.70;7.30;;;;;;;;;;4870223;29;20060;-69
2022/03/05 08:03:29;;;;;;;13.98;7.63;;;;;;;;;;4917093;29;20058;-69
2022/03/05 08:05:58;;;;;;;15.60;8.63;;;;;;;;;;4888977;29;20693;-70
2022/03/05 08:08:37;;;;;;;14.25;8.20;;;;;;;;;;4917035;29;20096;-70
2022/03/05 08:11:08;;;;;;;11.75;7.75;;;;;;;;;;4918288;29;20052;-70
2022/03/05 08:13:39;;;;;;;12.95;7.20;;;;;;;;;;4897903;29;20075;-69
2022/03/05 08:16:10;;;;;;;14.90;8.07;;;;;;;;;;4901193;29;20056;-70
2022/03/05 08:18:40;;;;;;;14.73;7.43;;;;;;;;;;4888301;29;20143;-70
2022/03/05 08:21:11;;;;;;;14.93;7.90;;;;;;;;;;4903732;29;20506;-70
2022/03/05 08:23:49;;;;;;;16.77;9.13;;;;;;;;;;4887909;29;20075;-69
2022/03/05 08:26:20;;;;;;;14.07;8.07;;;;;;;;;;4920557;29;20059;-69
2022/03/05 08:28:51;;;;;;;16.55;7.90;;;;;;;;;;4891293;29;20596;-69
2022/03/05 08:31:22;;;;;;;15.25;8.07;;;;;;;;;;4902177;29;20514;-70
2022/03/05 08:33:52;;;;;;;14.15;8.50;;;;;;;;;;4902366;29;20056;-70
2022/03/05 08:36:23;;;;;;;17.63;8.65;;;;;;;;;;4907157;29;20056;-70
2022/03/05 08:38:53;;;;;;;14.75;9.15;;;;;;;;;;4900124;29;20051;-70
2022/03/05 08:41:30;;;;;;;16.38;8.30;;;;;;;;;;4903331;29;20111;-70
2022/03/05 08:44:01;;;;;;;13.38;8.45;;;;;;;;;;4906665;29;20143;-70
2022/03/05 08:46:29;;;;;;;19.08;9.00;;;;;;;;;;4876945;29;20388;-69
2022/03/05 08:48:58;;;;;;;15.60;8.88;;;;;;;;;;4904333;29;20048;-69
2022/03/05 08:51:26;;;;;;;19.75;8.52;;;;;;;;;;4906207;29;20142;-69
2022/03/05 08:53:56;;;;;;;16.35;8.65;;;;;;;;;;4904827;29;20701;-70
2022/03/05 08:56:27;;;;;;;16.13;9.50;;;;;;;;;;4888460;29;20387;-70
2022/03/05 08:59:03;;;;;;;15.57;8.90;;;;;;;;;;4924127;29;20070;-70
2022/03/05 09:01:35;;;;;;;16.08;9.43;;;;;;;;;;4891923;29;20155;-69
2022/03/05 09:04:06;;;;;;;18.35;9.10;;;;;;;;;;4905833;29;20052;-69
2022/03/05 09:06:36;;;;;;;16.25;9.80;;;;;;;;;;4907646;29;20056;-69
2022/03/05 09:09:07;;;;;;;19.38;9.85;;;;;;;;;;4904977;29;20059;-69
2022/03/05 09:11:38;;;;;;;20.33;9.93;;;;;;;;;;4922571;29;20055;-69
2022/03/05 09:14:06;;;;;;;16.70;9.50;;;;;;;;;;4904146;29;20047;-69
2022/03/05 09:16:44;;;;;;;19.08;10.23;;;;;;;;;;4901298;29;20130;-69
2022/03/05 09:19:12;;;;;;;22.17;10.70;;;;;;;;;;4876729;29;20055;-69
2022/03/05 09:21:43;;;;;;;16.33;9.73;;;;;;;;;;4903893;29;20125;-69
2022/03/05 09:24:13;;;;;;;18.38;10.10;;;;;;;;;;4890337;29;20135;-69
2022/03/05 09:26:45;;;;;;;18.83;10.45;;;;;;;;;;4891857;29;20044;-69
2022/03/05 09:29:16;;;;;;;18.05;10.38;;;;;;;;;;4892073;29;20174;-69
2022/03/05 09:31:55;;;;;;;20.73;10.68;;;;;;;;;;4889733;29;20055;-70
2022/03/05 09:34:25;;;;;;;18.77;10.63;;;;;;;;;;4907978;29;20063;-70
2022/03/05 09:36:56;;;;;;;18.30;11.02;;;;;;;;;;4909230;29;20139;-70
2022/03/05 09:39:26;;;;;;;18.77;11.00;;;;;;;;;;4906409;29;20134;-70
2022/03/05 09:41:57;;;;;;;21.63;11.35;;;;;;;;;;4877128;29;20091;-70
2022/03/05 09:44:25;;;;;;;20.48;11.35;;;;;;;;;;4905478;29;20179;-70
2022/03/05 09:46:56;;;;;;;20.85;12.02;;;;;;;;;;4891520;29;20055;-70
2022/03/05 09:49:30;;;;;;;21.35;12.00;;;;;;;;;;4915046;29;20048;-70
2022/03/05 09:52:03;;;;;;;23.00;11.57;;;;;;;;;;4892223;29;20048;-70
2022/03/05 09:54:34;;;;;;;19.40;12.00;;;;;;;;;;4891505;29;20394;-70
2022/03/05 09:57:04;;;;;;;21.15;11.98;;;;;;;;;;4890686;29;20047;-70
2022/03/05 09:59:35;;;;;;;20.23;11.93;;;;;;;;;;4891568;29;20055;-70
2022/03/05 10:02:05;;;;;;;22.35;11.60;;;;;;;;;;4875838;29;20174;-70
2022/03/05 10:04:39;;;;;;;19.80;11.80;;;;;;;;;;4890102;29;20111;-70
2022/03/05 10:07:11;;;;;;;20.17;12.32;;;;;;;;;;4903677;29;20051;-70
2022/03/05 10:09:41;;;;;;;20.58;12.48;;;;;;;;;;4908021;29;20055;-70
2022/03/05 10:12:31;;;;;;;20.55;11.90;;;;;;;;;;4917009;29;20059;-69
2022/03/05 10:15:21;;;;;;;20.10;11.52;;;;;;;;;;4915424;29;20060;-70
2022/03/05 10:18:05;;;;;;;21.02;12.18;;;;;;;;;;4906862;29;20422;-70
2022/03/05 10:20:35;;;;;;;21.02;12.40;;;;;;;;;;4903286;29;20044;-70
2022/03/05 10:23:06;;;;;;;19.08;11.30;;;;;;;;;;4900097;29;20047;-70
2022/03/05 10:25:36;;;;;;;19.50;11.40;;;;;;;;;;4906305;29;20050;-70
2022/03/05 10:28:17;;;;;;;22.13;12.85;;;;;;;;;;4919130;29;20579;-70
2022/03/05 10:30:48;;;;;;;19.58;11.93;;;;;;;;;;4915913;29;20108;-70
2022/03/05 10:33:25;;;;;;;21.92;12.95;;;;;;;;;;4922030;29;20070;-70
2022/03/05 10:36:08;;;;;;;23.63;12.63;;;;;;;;;;4921924;29;20054;-70
2022/03/05 10:38:51;;;;;;;22.17;13.40;;;;;;;;;;4899239;29;20059;-70
2022/03/05 10:41:24;;;;;;;25.83;12.80;;;;;;;;;;4903806;29;20055;-70
2022/03/05 10:44:07;;;;;;;21.45;12.73;;;;;;;;;;4908299;29;20111;-70
2022/03/05 10:46:41;;;;;;;20.03;12.60;;;;;;;;;;4888328;29;20059;-70
2022/03/05 10:49:18;;;;;;;26.95;13.68;;;;;;;;;;4891241;29;20150;-70
2022/03/05 10:52:06;;;;;;;24.20;12.70;;;;;;;;;;4899774;29;20143;-70
2022/03/05 10:54:39;;;;;;;24.02;13.52;;;;;;;;;;4901222;29;20052;-70
2022/03/05 10:57:13;;;;;;;22.85;13.85;;;;;;;;;;4916537;29;20056;-70
2022/03/05 10:59:50;;;;;;;23.90;13.45;;;;;;;;;;4905934;29;20070;-70
2022/03/05 11:02:18;;;;;;;21.90;13.07;;;;;;;;;;4905888;29;20130;-70
2022/03/05 11:04:49;;;;;;;24.73;12.85;;;;;;;;;;4903725;29;20723;-70
2022/03/05 11:07:23;;;;;;;21.85;12.35;;;;;;;;;;4894011;29;20056;-70
2022/03/05 11:09:54;;;;;;;21.92;13.32;;;;;;;;;;4919240;29;20136;-70
2022/03/05 11:12:23;;;;;;;21.88;13.15;;;;;;;;;;4890708;29;20893;-70
2022/03/05 11:14:53;;;;;;;21.90;13.18;;;;;;;;;;4905064;29;20071;-70
2022/03/05 11:17:29;;;;;;;24.27;13.80;;;;;;;;;;4908965;29;20056;-70
2022/03/05 11:20:00;;;;;;;22.65;13.15;;;;;;;;;;4904704;29;20394;-70
2022/03/05 11:22:37;;;;;;;23.73;13.05;;;;;;;;;;4886488;29;20085;-70
2022/03/05 11:25:08;;;;;;;22.58;14.23;;;;;;;;;;4888908;29;20051;-70
2022/03/05 11:27:38;;;;;;;24.30;13.55;;;;;;;;;;4906099;29;20143;-70
2022/03/05 11:30:08;;;;;;;23.38;13.63;;;;;;;;;;4904085;29;20066;-70
2022/03/05 11:32:43;;;;;;;20.70;13.45;;;;;;;;;;4922552;29;20415;-70
2022/03/05 11:35:32;;;;;;;21.60;13.18;;;;;;;;;;4901883;29;20051;-70
2022/03/05 11:38:04;;;;;;;23.25;12.80;;;;;;;;;;4872401;29;20148;-70
2022/03/05 11:40:36;;;;;;;33.05;14.27;;;;;;;;;;4888959;29;20128;-70
2022/03/05 11:43:18;;;;;;;23.77;13.48;;;;;;;;;;4903337;29;20044;-70
2022/03/05 11:45:52;;;;;;;22.13;13.27;;;;;;;;;;4920278;29;20111;-70
2022/03/05 11:48:36;;;;;;;23.60;13.35;;;;;;;;;;4900965;29;20056;-70
2022/03/05 11:51:12;;;;;;;24.42;13.43;;;;;;;;;;4920784;29;20056;-70
2022/03/05 11:54:06;;;;;;;23.15;14.00;;;;;;;;;;4900210;29;20132;-70
2022/03/05 11:56:36;;;;;;;21.75;13.60;;;;;;;;;;4915382;29;20715;-70
2022/03/05 11:59:21;;;;;;;21.70;14.05;;;;;;;;;;4918473;29;20048;-70
2022/03/05 12:01:55;;;;;;;21.45;13.65;;;;;;;;;;4921080;29;20542;-70
2022/03/05 12:04:28;;;;;;;21.20;13.65;;;;;;;;;;4902007;29;20074;-70
2022/03/05 12:06:58;;;;;;;20.90;13.60;;;;;;;;;;4877549;29;20059;-70
2022/03/05 12:09:49;;;;;;;18.27;12.75;;;;;;;;;;4890707;29;20414;-70
2022/03/05 12:12:25;;;;;;;21.67;13.55;;;;;;;;;;4901954;29;20056;-70
2022/03/05 12:15:18;;;;;;;19.85;13.75;;;;;;;;;;4892605;29;20048;-70
2022/03/05 12:17:50;;;;;;;22.10;13.95;;;;;;;;;;4903470;29;20062;-70
2022/03/05 12:20:20;;;;;;;21.77;13.45;;;;;;;;;;4891495;29;20055;-70
2022/03/05 12:22:58;;;;;;;22.23;13.38;;;;;;;;;;4908405;29;20052;-70
2022/03/05 12:25:32;;;;;;;17.98;12.40;;;;;;;;;;4902743;29;20126;-70
2022/03/05 12:28:04;;;;;;;21.50;13.50;;;;;;;;;;4908507;29;20075;-71
2022/03/05 12:30:37;;;;;;;19.13;13.27;;;;;;;;;;4892413;29;20063;-70
2022/03/05 12:33:06;;;;;;;22.30;13.60;;;;;;;;;;4922571;29;20067;-70
2022/03/05 12:35:37;;;;;;;20.83;13.15;;;;;;;;;;4907360;29;20047;-70
2022/03/05 12:38:08;;;;;;;20.25;13.55;;;;;;;;;;4892379;29;20064;-70
2022/03/05 12:40:39;;;;;;;19.50;13.35;;;;;;;;;;4908147;29;20713;-70
2022/03/05 12:43:16;;;;;;;18.20;13.10;;;;;;;;;;4906135;29;20068;-70
2022/03/05 12:45:48;;;;;;;19.70;12.55;;;;;;;;;;4904495;29;20376;-70
2022/03/05 12:48:16;;;;;;;19.00;13.20;;;;;;;;;;4905603;29;20395;-70
2022/03/05 12:50:47;;;;;;;19.08;13.25;;;;;;;;;;4894871;29;20052;-71
2022/03/05 12:53:16;;;;;;;17.88;13.20;;;;;;;;;;4879038;29;20081;-69
2022/03/05 12:55:47;;;;;;;20.52;13.40;;;;;;;;;;4904254;29;20059;-68
2022/03/05 12:58:18;;;;;;;20.52;12.73;;;;;;;;;;4904850;29;20059;-68
2022/03/05 13:00:52;;;;;;;19.30;12.88;;;;;;;;;;4886429;29;20432;-68
2022/03/05 13:03:24;;;;;;;17.67;13.30;;;;;;;;;;4903334;29;20067;-68
2022/03/05 13:05:54;;;;;;;17.40;12.85;;;;;;;;;;4896957;29;20108;-68
2022/03/05 13:08:25;;;;;;;20.20;14.13;;;;;;;;;;4902928;29;21608;-68
2022/03/05 13:11:04;;;;;;;19.20;13.10;;;;;;;;;;4893179;29;20052;-68
2022/03/05 13:13:35;;;;;;;17.65;13.07;;;;;;;;;;4907217;29;20115;-68
2022/03/05 13:16:09;;;;;;;17.95;13.00;;;;;;;;;;4906162;29;20083;-68
2022/03/05 13:18:37;;;;;;;19.35;12.45;;;;;;;;;;4893025;29;20139;-68
2022/03/05 13:21:08;;;;;;;19.65;13.40;;;;;;;;;;4908746;29;20486;-69
2022/03/05 13:23:40;;;;;;;20.45;13.80;;;;;;;;;;4903312;29;20047;-69
2022/03/05 13:26:09;;;;;;;18.60;13.00;;;;;;;;;;4891497;29;20528;-69
2022/03/05 13:28:41;;;;;;;21.25;12.32;;;;;;;;;;4891258;29;20068;-69
2022/03/05 13:31:10;;;;;;;17.50;12.73;;;;;;;;;;4892460;29;20120;-68
2022/03/05 13:33:48;;;;;;;18.08;13.10;;;;;;;;;;4923956;29;20139;-68
2022/03/05 13:36:22;;;;;;;17.98;12.75;;;;;;;;;;4894968;29;20131;-68
2022/03/05 13:38:52;;;;;;;18.80;12.43;;;;;;;;;;4902321;29;20054;-68
2022/03/05 13:41:24;;;;;;;17.83;13.05;;;;;;;;;;4908233;29;20114;-68
2022/03/05 13:43:56;;;;;;;18.65;13.55;;;;;;;;;;4896027;29;20707;-68
2022/03/05 13:46:24;;;;;;;19.10;13.02;;;;;;;;;;4890257;29;20456;-68
2022/03/05 13:48:58;;;;;;;21.10;13.93;;;;;;;;;;4904400;29;20079;-68
2022/03/05 13:51:26;;;;;;;17.83;12.68;;;;;;;;;;4907562;29;20051;-68
2022/03/05 13:53:58;;;;;;;17.88;13.23;;;;;;;;;;4889474;29;20048;-68
2022/03/05 13:56:29;;;;;;;20.23;13.07;;;;;;;;;;4891291;29;20050;-69
2022/03/05 13:59:01;;;;;;;19.05;13.07;;;;;;;;;;4889776;29;20156;-69
2022/03/05 14:01:39;;;;;;;18.55;13.73;;;;;;;;;;4905638;29;20048;-69
2022/03/05 14:04:12;;;;;;;19.55;13.32;;;;;;;;;;4901486;29;20060;-69
2022/03/05 14:06:52;;;;;;;19.17;14.25;;;;;;;;;;4890003;29;20066;-69
2022/03/05 14:09:24;;;;;;;19.67;14.57;;;;;;;;;;4908534;29;20111;-69
2022/03/05 14:12:08;;;;;;;21.50;15.27;;;;;;;;;;4877492;29;20066;-69
2022/03/05 14:14:56;;;;;;;22.38;14.27;;;;;;;;;;4917113;29;20103;-69
2022/03/05 14:17:32;;;;;;;17.50;13.05;;;;;;;;;;4903599;29;20048;-68
2022/03/05 14:20:14;;;;;;;17.67;12.70;;;;;;;;;;4889221;29;20070;-68
2022/03/05 14:22:42;;;;;;;17.00;12.60;;;;;;;;;;4885575;29;20059;-68
2022/03/05 14:25:24;;;;;;;16.52;12.77;;;;;;;;;;4889554;29;20439;-68
2022/03/05 14:27:55;;;;;;;16.83;12.07;;;;;;;;;;4903353;29;20108;-68
2022/03/05 14:30:27;;;;;;;13.20;10.60;;;;;;;;;;4912728;29;20138;-68
2022/03/05 14:32:59;;;;;;;17.45;11.05;;;;;;;;;;4874360;29;20083;-69
2022/03/05 14:35:31;;;;;;;13.05;10.30;;;;;;;;;;4908284;29;20119;-69
2022/03/05 14:38:01;;;;;;;15.75;11.45;;;;;;;;;;4891127;29;20151;-69
2022/03/05 14:40:36;;;;;;;15.20;11.52;;;;;;;;;;4902806;29;20056;-69
2022/03/05 14:43:09;;;;;;;16.85;10.70;;;;;;;;;;4903653;29;20055;-69
2022/03/05 14:45:40;;;;;;;12.98;10.23;;;;;;;;;;4883826;29;20783;-69
2022/03/05 14:48:16;;;;;;;14.07;10.90;;;;;;;;;;4906675;29;20054;-69
2022/03/05 14:50:47;;;;;;;15.20;11.77;;;;;;;;;;4903848;29;20056;-69
2022/03/05 14:53:18;;;;;;;17.33;12.05;;;;;;;;;;4889671;29;20055;-69